Flight Track Log - Related Links

Times and Time Zones

All times are in EDT time to prevent confusion due to time zone crossing. See the CTL309 flight status page for this flight to view local times or setup timezone preferences in your user account.

Time Position Orientation Groundspeed Altitude Reporting Facility
EDT Latitude Longitude Course Direction KTS MPH feet Rate Location/Type
Fri 04:01:37 AM 40.0692 -83.1311 238° Southwest 143 165 1,800  Level Indianapolis Center
Fri 04:02:38 AM 40.0453 -83.1819 238° Southwest 152 175 2,200 379 Climbing Indianapolis Center
Fri 04:03:12 AM 40.0325 -83.2025 231° Southwest 150 173 2,400 511 Climbing Indianapolis Center
Fri 04:04:12 AM 40.0078 -83.2472 234° Southwest 151 174 3,000 650 Climbing Indianapolis Center
Fri 04:05:12 AM 39.9850 -83.2897 235° Southwest 146 168 3,700 496 Climbing Indianapolis Center
Fri 04:06:13 AM 39.9656 -83.3292 237° Southwest 134 154 4,000 99 Climbing Indianapolis Center
Fri 04:07:13 AM 39.9406 -83.3794 237° Southwest 152 175 3,900  Descending Indianapolis Center
Fri 04:08:13 AM 39.9194 -83.4289 241° Southwest 158 182 4,000  Climbing Indianapolis Center
Fri 04:09:13 AM 39.8986 -83.4797 242° Southwest 159 183 3,900  Descending Indianapolis Center
Fri 04:10:14 AM 39.8728 -83.5239 233° Southwest 157 181 4,000 50 Climbing Indianapolis Center
Fri 04:11:14 AM 39.8464 -83.5681 232° Southwest 156 180 4,000  Level Indianapolis Center
Fri 04:12:14 AM 39.8225 -83.6156 237° Southwest 156 180 4,000  Level Indianapolis Center
Fri 04:12:44 AM 39.8103 -83.6450 242° Southwest 162 186 4,000  Level Indianapolis Center
Fri 04:13:14 AM 39.7994 -83.6656 236° Southwest 158 182 4,000  Level Indianapolis Center
Fri 04:13:45 AM 39.7828 -83.6894 228° Southwest 161 185 4,000 -98 Level Indianapolis Center
Fri 04:14:15 AM 39.7711 -83.7106 234° Southwest 160 184 3,900 -100 Descending Indianapolis Center
Fri 04:14:45 AM 39.7569 -83.7369 235° Southwest 159 183 3,900 100 Level Indianapolis Center
Fri 04:15:15 AM 39.7450 -83.7592 235° Southwest 161 185 4,000 98 Climbing Indianapolis Center
Fri 04:15:46 AM 39.7306 -83.7894 238° Southwest 159 183 4,000  Level Indianapolis Center
Fri 04:16:46 AM 39.7067 -83.8372 237° Southwest 157 181 4,000 -67 Level Indianapolis Center
Fri 04:17:16 AM 39.6964 -83.8547 233° Southwest 158 182 3,900  Descending Indianapolis Center
Fri 04:17:47 AM 39.6828 -83.8847 239° Southwest 156 180 4,000 65 Climbing Indianapolis Center
Fri 04:18:48 AM 39.6569 -83.9294 233° Southwest 158 182 4,000 -50 Level Indianapolis Center
Fri 04:19:48 AM 39.6272 -83.9731 229° Southwest 177 204 3,900 -50 Descending Indianapolis Center
Fri 04:20:49 AM 39.6033 -84.0206 237° Southwest 164 189 3,900 50 Level Indianapolis Center
Fri 04:21:49 AM 39.5811 -84.0711 240° Southwest 159 183 4,000 41 Climbing Indianapolis Center
Fri 04:23:17 AM 39.5439 -84.1381 234° Southwest 159 183 4,000  Level Indianapolis Center
Fri 04:24:18 AM 39.5189 -84.1864 236° Southwest 159 183 4,000 -99 Level Indianapolis Center
Fri 04:26:18 AM 39.4719 -84.2861 239° Southwest 163 188 3,700 -99 Descending Indianapolis Center
Fri 04:27:19 AM 39.4475 -84.3372 238° Southwest 162 186 3,700  Level Indianapolis Center
Fri 04:29:00 AM 39.4065 -84.4089 243° Southwest  Level FlightAware Approximate
Fri 04:36:00 AM 39.3500 -84.5167 229° Southwest  Level FlightAware Approximate

Login

Don't have an account? Register now (free) for customized features, flight alerts, and more!